Storm Events Database

Event Details

Event Thunderstorm Wind
Magnitude 61 kts.
State MONTANA
County/Area DAWSON
WFO GGW
Report Source Trained Spotter
NCDC Data Source CSV
Begin Date 2007-08-10 19:23:00.0 MST-7
Begin Location 9NE BLOOMFIELD
Begin Lat/Lon 47.51/-104.79
End Date 2007-08-10 19:23:00.0 MST-7
Deaths Direct/Indirect 0/0 (fatality details below, when available...)
Injuries Direct/Indirect 0/0
Property Damage 0.00K
Crop Damage 0.00K
Episode Narrative A vigorous upper level storm system and strong cold front produced a widespread severe weather outbreak in northeastern Montana. The majority of the events were high wind, a few reports of large hail, and two tornadoes.
Event Narrative


     ‚Äč



All events for this episode:

Location County/Zone St. Date Time T.Z. Type Mag Dth Inj PrD CrD
Totals: 0 0 72.00K 0.00K
ZORTMAN PHILLIPS CO. MT 08/10/2007 16:20 MST-7 Thunderstorm Wind 63 kts. MG 0 0 0.00K 0.00K
WIBAUX WIBAUX CO. MT 08/10/2007 16:35 MST-7 Hail 0.75 in. 0 0 0.00K 0.00K
WINNETT PETROLEUM CO. MT 08/10/2007 16:35 MST-7 Thunderstorm Wind 52 kts. EG 0 0 0.00K 0.00K
WHITEWATER PHILLIPS CO. MT 08/10/2007 17:00 MST-7 Hail 0.88 in. 0 0 0.00K 0.00K
MALTA PHILLIPS CO. MT 08/10/2007 17:10 MST-7 Thunderstorm Wind 52 kts. EG 0 0 0.00K 0.00K
MALTA PHILLIPS CO. MT 08/10/2007 17:15 MST-7 Tornado EF1 0 0 25.00K 0.00K
SAND SPGS GARFIELD CO. MT 08/10/2007 17:20 MST-7 Thunderstorm Wind 61 kts. EG 0 0 0.00K 0.00K
EDWARDS GARFIELD CO. MT 08/10/2007 17:30 MST-7 Thunderstorm Wind 52 kts. EG 0 0 0.00K 0.00K
GLASGOW VALLEY CO. MT 08/10/2007 17:30 MST-7 Thunderstorm Wind 52 kts. EG 0 0 0.00K 0.00K
SACO PHILLIPS CO. MT 08/10/2007 17:35 MST-7 Thunderstorm Wind 52 kts. EG 0 0 0.00K 0.00K
SACO PHILLIPS CO. MT 08/10/2007 17:35 MST-7 Thunderstorm Wind 61 kts. EG 0 0 0.00K 0.00K
(JDN)JORDAN GARFIELD CO. MT 08/10/2007 17:37 MST-7 Thunderstorm Wind 62 kts. MG 0 0 0.00K 0.00K
HINSDALE VALLEY CO. MT 08/10/2007 17:55 MST-7 Thunderstorm Wind 52 kts. EG 0 0 0.00K 0.00K
JORDAN GARFIELD CO. MT 08/10/2007 18:00 MST-7 Thunderstorm Wind 61 kts. EG 0 0 0.00K 0.00K
NASHUA VALLEY CO. MT 08/10/2007 18:14 MST-7 Thunderstorm Wind 61 kts. EG 0 0 0.00K 0.00K
WELDON MCCONE CO. MT 08/10/2007 18:20 MST-7 Thunderstorm Wind 61 kts. EG 0 0 0.00K 0.00K
WELDON MCCONE CO. MT 08/10/2007 18:30 MST-7 Thunderstorm Wind 56 kts. EG 0 0 0.00K 0.00K
WELDON MCCONE CO. MT 08/10/2007 18:30 MST-7 Thunderstorm Wind 52 kts. EG 0 0 0.00K 0.00K
OPHEIM VALLEY CO. MT 08/10/2007 18:40 MST-7 Hail 0.75 in. 0 0 0.00K 0.00K
OPHEIM VALLEY CO. MT 08/10/2007 18:40 MST-7 Thunderstorm Wind 56 kts. EG 0 0 0.00K 0.00K
OPHEIM VALLEY CO. MT 08/10/2007 18:45 MST-7 Tornado EF1 0 0 10.00K 0.00K
GLENTANA VALLEY CO. MT 08/10/2007 18:50 MST-7 Thunderstorm Wind 52 kts. EG 0 0 0.00K 0.00K
OPHEIM VALLEY CO. MT 08/10/2007 18:50 MST-7 Hail 0.75 in. 0 0 0.00K 0.00K
POPLAR ROOSEVELT CO. MT 08/10/2007 18:50 MST-7 Thunderstorm Wind 52 kts. EG 0 0 0.00K 0.00K
GLENTANA VALLEY CO. MT 08/10/2007 18:54 MST-7 Hail 1.00 in. 0 0 0.00K 0.00K
(OLF)WOLF PT INT ARP ROOSEVELT CO. MT 08/10/2007 18:57 MST-7 Thunderstorm Wind 55 kts. MG 0 0 0.00K 0.00K
CIRCLE MCCONE CO. MT 08/10/2007 19:10 MST-7 Thunderstorm Wind 52 kts. EG 0 0 0.00K 0.00K
CIRCLE MCCONE CO. MT 08/10/2007 19:10 MST-7 Thunderstorm Wind 52 kts. MG 0 0 0.00K 0.00K
TERRY PRAIRIE CO. MT 08/10/2007 19:15 MST-7 Thunderstorm Wind 52 kts. EG 0 0 0.00K 0.00K
BROCKTON ROOSEVELT CO. MT 08/10/2007 19:16 MST-7 Thunderstorm Wind 65 kts. EG 0 0 0.00K 0.00K
WHITETAIL DANIELS CO. MT 08/10/2007 19:16 MST-7 Thunderstorm Wind 52 kts. EG 0 0 0.00K 0.00K
POPLAR ROOSEVELT CO. MT 08/10/2007 19:20 MST-7 Thunderstorm Wind 52 kts. EG 0 0 1.00K 0.00K
BLOOMFIELD DAWSON CO. MT 08/10/2007 19:23 MST-7 Thunderstorm Wind 61 kts. EG 0 0 0.00K 0.00K
POPLAR ROOSEVELT CO. MT 08/10/2007 19:25 MST-7 Thunderstorm Wind 61 kts. EG 0 0 0.00K 0.00K
BROCKTON ROOSEVELT CO. MT 08/10/2007 19:35 MST-7 Thunderstorm Wind 56 kts. EG 0 0 1.00K 0.00K
POPLAR ROOSEVELT CO. MT 08/10/2007 19:35 MST-7 Thunderstorm Wind 52 kts. EG 0 0 0.00K 0.00K
ENID RICHLAND CO. MT 08/10/2007 19:40 MST-7 Thunderstorm Wind 52 kts. EG 0 0 0.00K 0.00K
LINDSAY DAWSON CO. MT 08/10/2007 19:40 MST-7 Thunderstorm Wind 54 kts. MG 0 0 0.00K 0.00K
HOMESTEAD SHERIDAN CO. MT 08/10/2007 19:45 MST-7 Thunderstorm Wind 61 kts. EG 0 0 35.00K 0.00K
BROCKTON ROOSEVELT CO. MT 08/10/2007 19:50 MST-7 Thunderstorm Wind 65 kts. MG 0 0 0.00K 0.00K
FALLON PRAIRIE CO. MT 08/10/2007 20:00 MST-7 Thunderstorm Wind 52 kts. EG 0 0 0.00K 0.00K
MEDICINE LAKE SHERIDAN CO. MT 08/10/2007 20:10 MST-7 Thunderstorm Wind 57 kts. MG 0 0 0.00K 0.00K
ANTELOPE SHERIDAN CO. MT 08/10/2007 20:30 MST-7 Thunderstorm Wind 52 kts. EG 0 0 0.00K 0.00K
COALRIDGE SHERIDAN CO. MT 08/10/2007 20:30 MST-7 Thunderstorm Wind 52 kts. EG 0 0 0.00K 0.00K
ANTELOPE SHERIDAN CO. MT 08/10/2007 20:40 MST-7 Thunderstorm Wind 52 kts. EG 0 0 0.00K 0.00K
WIBAUX WIBAUX CO. MT 08/10/2007 20:45 MST-7 Thunderstorm Wind 52 kts. EG 0 0 0.00K 0.00K
Totals: 0 0 72.00K 0.00K